Time;durP1;ratioP1;P1;durP2;ratioP2;P2;SDS_P1;SDS_P2;PMS_P1;PMS_P2;Temp;Humidity;BMP_temperature;BMP_pressure;BME280_temperature;BME280_humidity;BME280_pressure;Samples;Min_cycle;Max_cycle;Signal;HPM_P1;HPM_P2
2022/02/14 00:01:06;;;;;;;12.65;4.57;;;6.90;99.90;;;;;;6190667;23;20009;-79
2022/02/14 00:03:32;;;;;;;7.80;4.45;;;6.90;99.90;;;;;;6190725;23;20096;-79
2022/02/14 00:05:59;;;;;;;8.70;4.13;;;6.90;99.90;;;;;;6189972;23;20020;-79
2022/02/14 00:08:25;;;;;;;8.52;4.43;;;7.10;99.90;;;;;;6188695;23;20340;-78
2022/02/14 00:10:51;;;;;;;10.25;4.50;;;7.10;99.90;;;;;;6191616;23;20059;-79
2022/02/14 00:13:16;;;;;;;7.32;4.10;;;7.30;99.90;;;;;;6192983;23;20009;-79
2022/02/14 00:15:43;;;;;;;10.38;4.78;;;7.40;99.90;;;;;;6193130;23;20004;-79
2022/02/14 00:18:08;;;;;;;9.48;4.05;;;7.40;99.90;;;;;;6191779;23;20011;-79
2022/02/14 00:20:34;;;;;;;14.45;5.57;;;7.40;99.90;;;;;;6192413;23;20033;-79
2022/02/14 00:23:05;;;;;;;9.70;5.07;;;7.40;99.90;;;;;;6191391;23;20285;-79
2022/02/14 00:25:32;;;;;;;10.55;5.10;;;7.40;99.90;;;;;;6193873;23;20005;-79
2022/02/14 00:28:00;;;;;;;13.98;4.53;;;7.30;99.90;;;;;;6192749;23;20036;-79
2022/02/14 00:30:26;;;;;;;8.80;4.93;;;7.40;99.90;;;;;;6201477;23;19998;-79
2022/02/14 00:32:52;;;;;;;13.65;5.05;;;7.30;99.90;;;;;;6204501;23;20004;-78
2022/02/14 00:35:18;;;;;;;9.30;5.05;;;7.30;99.90;;;;;;6205072;23;19993;-80
2022/02/14 00:37:44;;;;;;;9.55;4.78;;;7.20;99.90;;;;;;6204180;23;20008;-79
2022/02/14 00:40:10;;;;;;;8.45;4.75;;;7.20;99.90;;;;;;6203555;23;20024;-79
2022/02/14 00:42:36;;;;;;;9.48;4.75;;;7.20;99.90;;;;;;6205337;23;20024;-79
2022/02/14 00:45:02;;;;;;;11.30;4.63;;;7.20;99.90;;;;;;6204002;23;20005;-79
2022/02/14 00:47:30;;;;;;;9.98;4.70;;;7.30;99.90;;;;;;6202038;23;20009;-78
2022/02/14 00:49:57;;;;;;;6.85;4.38;;;7.30;99.90;;;;;;6201119;23;20001;-78
2022/02/14 00:52:23;;;;;;;10.40;5.13;;;7.30;99.90;;;;;;6198431;23;20059;-77
2022/02/14 00:54:52;;;;;;;20.42;5.78;;;7.30;99.90;;;;;;6199524;23;20060;-78
2022/02/14 00:57:17;;;;;;;8.48;4.72;;;7.30;99.90;;;;;;6204232;23;20003;-78
2022/02/14 00:59:43;;;;;;;9.30;4.53;;;7.20;99.90;;;;;;6207655;23;20005;-79
2022/02/14 01:02:08;;;;;;;9.32;5.53;;;7.10;99.90;;;;;;6209293;23;20012;-78
2022/02/14 01:04:34;;;;;;;8.80;5.60;;;7.10;99.90;;;;;;6209018;23;19997;-79
2022/02/14 01:06:59;;;;;;;9.50;5.43;;;7.00;99.90;;;;;;6208474;23;20013;-78
2022/02/14 01:09:25;;;;;;;12.25;6.05;;;7.00;99.90;;;;;;6211090;23;20001;-79
2022/02/14 01:11:50;;;;;;;9.38;5.20;;;6.90;99.90;;;;;;6210737;23;19995;-79
2022/02/14 01:14:16;;;;;;;10.27;5.13;;;6.80;99.90;;;;;;6213123;23;20001;-80
2022/02/14 01:16:42;;;;;;;10.65;5.10;;;6.70;99.90;;;;;;6213298;23;20084;-80
2022/02/14 01:19:07;;;;;;;9.18;5.10;;;6.70;99.90;;;;;;6212918;23;20000;-80
2022/02/14 01:21:33;;;;;;;12.50;6.00;;;6.60;99.90;;;;;;6212961;23;19989;-80
2022/02/14 01:23:58;;;;;;;8.10;4.68;;;6.50;99.90;;;;;;6207363;23;20004;-76
2022/02/14 01:26:24;;;;;;;8.90;4.75;;;6.40;99.90;;;;;;6205552;23;20586;-80
2022/02/14 01:28:50;;;;;;;11.57;6.13;;;6.40;99.90;;;;;;6208986;23;20036;-80
2022/02/14 01:31:16;;;;;;;6.80;4.93;;;6.30;99.90;;;;;;6200052;23;20067;-75
2022/02/14 01:33:41;;;;;;;7.80;4.35;;;6.20;99.90;;;;;;6202580;23;20013;-75
2022/02/14 01:36:07;;;;;;;9.85;5.60;;;6.10;99.90;;;;;;6192276;23;20011;-75
2022/02/14 01:38:32;;;;;;;11.23;5.28;;;6.00;99.90;;;;;;6198900;23;20005;-76
2022/02/14 01:40:58;;;;;;;12.55;4.78;;;6.00;99.90;;;;;;6204881;23;20082;-75
2022/02/14 01:43:23;;;;;;;9.65;5.43;;;5.90;99.90;;;;;;6190123;23;20005;-75
2022/02/14 01:45:49;;;;;;;13.32;5.30;;;5.90;99.90;;;;;;6185651;23;20005;-75
2022/02/14 01:48:15;;;;;;;7.15;4.60;;;5.90;99.90;;;;;;6201104;23;20834;-75
2022/02/14 01:50:40;;;;;;;22.77;11.70;;;5.90;99.90;;;;;;6198502;23;20044;-75
2022/02/14 01:53:06;;;;;;;10.40;4.82;;;6.00;99.90;;;;;;6189585;23;20317;-76
2022/02/14 01:55:32;;;;;;;8.57;4.50;;;6.00;99.90;;;;;;6194608;23;20069;-75
2022/02/14 01:58:01;;;;;;;10.60;4.10;;;6.10;99.90;;;;;;6182955;23;20013;-75
2022/02/14 02:00:27;;;;;;;6.90;3.88;;;6.20;99.90;;;;;;6186614;23;20009;-75
2022/02/14 02:02:52;;;;;;;9.18;4.22;;;6.20;99.90;;;;;;6189211;23;20005;-75
2022/02/14 02:05:18;;;;;;;7.63;4.07;;;6.30;99.90;;;;;;6201173;23;20008;-75
2022/02/14 02:07:44;;;;;;;7.80;4.40;;;6.30;99.90;;;;;;6198617;23;20013;-75
2022/02/14 02:10:10;;;;;;;12.60;4.10;;;6.50;99.90;;;;;;6200863;23;20012;-75
2022/02/14 02:12:36;;;;;;;8.27;4.28;;;6.50;99.90;;;;;;6199828;23;20021;-76
2022/02/14 02:15:05;;;;;;;13.57;4.43;;;6.60;99.90;;;;;;6194186;23;20005;-76
2022/02/14 02:17:36;;;;;;;11.13;4.72;;;6.70;99.90;;;;;;6185134;23;20016;-76
2022/02/14 02:20:04;;;;;;;7.50;4.13;;;6.70;99.90;;;;;;6204463;23;20482;-76
2022/02/14 02:22:30;;;;;;;10.90;4.13;;;6.70;99.90;;;;;;6200564;23;20009;-76
2022/02/14 02:24:57;;;;;;;8.68;4.05;;;6.70;99.90;;;;;;6184966;23;20005;-76
2022/02/14 02:27:27;;;;;;;7.22;3.83;;;6.70;99.90;;;;;;6200102;23;20012;-76
2022/02/14 02:30:00;;;;;;;6.23;4.30;;;6.70;99.90;;;;;;6195235;23;20012;-76
2022/02/14 02:32:28;;;;;;;7.00;4.00;;;6.70;99.90;;;;;;6170949;23;20324;-75
2022/02/14 02:34:54;;;;;;;14.02;4.43;;;6.80;99.90;;;;;;6166773;23;20053;-75
2022/02/14 02:37:20;;;;;;;7.60;4.22;;;6.70;99.90;;;;;;6171446;23;20399;-76
2022/02/14 02:39:46;;;;;;;6.90;4.10;;;6.70;99.90;;;;;;6160853;23;20013;-76
2022/02/14 02:42:14;;;;;;;7.65;3.85;;;6.70;99.90;;;;;;6154329;23;20009;-76
2022/02/14 02:44:42;;;;;;;10.02;4.30;;;6.70;99.90;;;;;;6155100;23;20002;-76
2022/02/14 02:47:10;;;;;;;8.60;4.00;;;6.70;99.90;;;;;;6155378;23;19997;-75
2022/02/14 02:49:36;;;;;;;9.25;3.60;;;6.70;99.90;;;;;;6154425;23;20081;-75
2022/02/14 02:52:04;;;;;;;13.07;4.13;;;6.70;99.90;;;;;;6155110;23;20001;-76
2022/02/14 02:54:30;;;;;;;7.57;3.50;;;6.60;99.90;;;;;;6153142;23;20002;-75
2022/02/14 02:56:56;;;;;;;12.07;4.30;;;6.70;99.90;;;;;;6154736;23;20069;-76
2022/02/14 02:59:24;;;;;;;7.18;4.15;;;6.70;99.90;;;;;;6152703;23;20020;-75
2022/02/14 03:01:50;;;;;;;6.80;4.18;;;6.80;99.90;;;;;;6155400;23;20451;-74
2022/02/14 03:04:16;;;;;;;12.52;3.95;;;6.80;99.90;;;;;;6155505;23;20025;-75
2022/02/14 03:06:43;;;;;;;6.07;3.70;;;6.80;99.90;;;;;;6154850;23;20278;-75
2022/02/14 03:09:09;;;;;;;8.43;3.67;;;6.70;99.90;;;;;;6152174;23;20009;-76
2022/02/14 03:11:36;;;;;;;8.25;4.10;;;6.70;99.90;;;;;;6152808;23;20002;-75
2022/02/14 03:14:01;;;;;;;8.30;4.20;;;6.70;99.90;;;;;;6152885;23;20156;-75
2022/02/14 03:16:27;;;;;;;10.10;4.53;;;6.90;99.90;;;;;;6151505;23;20041;-75
2022/02/14 03:18:53;;;;;;;6.25;3.42;;;6.90;99.90;;;;;;6150705;23;20021;-75
2022/02/14 03:21:22;;;;;;;5.60;3.45;;;6.90;99.90;;;;;;6154085;23;20012;-75
2022/02/14 03:23:49;;;;;;;9.85;5.15;;;6.90;99.90;;;;;;6152481;23;20064;-75
2022/02/14 03:26:17;;;;;;;8.20;4.13;;;7.00;99.90;;;;;;6152076;23;20005;-75
2022/02/14 03:28:46;;;;;;;14.57;4.40;;;7.00;99.90;;;;;;6152784;23;20055;-75
2022/02/14 03:31:13;;;;;;;10.93;4.78;;;7.10;99.90;;;;;;6152846;23;20002;-75
2022/02/14 03:33:40;;;;;;;8.18;4.35;;;7.10;99.90;;;;;;6152949;23;20013;-75
2022/02/14 03:36:06;;;;;;;11.05;4.80;;;7.10;99.90;;;;;;6154200;23;20101;-75
2022/02/14 03:38:31;;;;;;;9.95;4.20;;;7.10;99.90;;;;;;6155329;23;20080;-75
2022/02/14 03:40:57;;;;;;;8.30;3.92;;;7.10;99.90;;;;;;6154787;23;20012;-75
2022/02/14 03:43:22;;;;;;;8.25;4.40;;;7.10;99.90;;;;;;6154099;23;20009;-76
2022/02/14 03:45:48;;;;;;;10.73;4.72;;;7.10;99.90;;;;;;6155565;23;20009;-76
2022/02/14 03:48:14;;;;;;;6.97;3.58;;;7.00;99.90;;;;;;6153279;23;20517;-74
2022/02/14 03:50:40;;;;;;;8.10;4.50;;;7.00;99.90;;;;;;6153514;23;20094;-74
2022/02/14 03:53:06;;;;;;;7.43;4.20;;;7.00;99.90;;;;;;6154878;23;20076;-75
2022/02/14 03:55:37;;;;;;;12.82;4.40;;;7.00;99.90;;;;;;6156138;23;20002;-75
2022/02/14 03:58:03;;;;;;;13.57;5.20;;;7.00;99.90;;;;;;6156447;23;20002;-75
2022/02/14 04:00:31;;;;;;;6.22;4.57;;;6.90;99.90;;;;;;6155622;23;20112;-75
2022/02/14 04:02:57;;;;;;;9.77;4.10;;;6.90;99.90;;;;;;6155327;23;20045;-75
2022/02/14 04:05:26;;;;;;;12.68;4.30;;;6.90;99.90;;;;;;6155047;23;20002;-75
2022/02/14 04:07:57;;;;;;;10.75;4.68;;;7.00;99.90;;;;;;6153412;23;20029;-75
2022/02/14 04:10:27;;;;;;;10.13;4.20;;;7.00;99.90;;;;;;6156749;23;20020;-76
2022/02/14 04:12:53;;;;;;;10.38;4.00;;;7.10;99.90;;;;;;6156069;23;20498;-76
2022/02/14 04:15:22;;;;;;;10.90;4.30;;;7.10;99.90;;;;;;6155521;23;20009;-76
2022/02/14 04:17:49;;;;;;;10.15;4.50;;;7.10;99.90;;;;;;6155447;23;20089;-76
2022/02/14 04:20:15;;;;;;;7.65;4.22;;;7.20;99.90;;;;;;6155672;23;20005;-76
2022/02/14 04:22:42;;;;;;;8.23;4.57;;;7.20;99.90;;;;;;6156764;23;20341;-76
2022/02/14 04:25:10;;;;;;;10.35;4.15;;;7.10;99.90;;;;;;6155848;23;20009;-78
2022/02/14 04:27:36;;;;;;;9.18;4.90;;;7.10;99.90;;;;;;6156605;23;20085;-80
2022/02/14 04:30:02;;;;;;;12.18;4.55;;;7.10;99.90;;;;;;6156058;23;20025;-76
2022/02/14 04:32:48;;;;;;;10.60;4.05;;;7.10;99.90;;;;;;6155942;23;20048;-76
2022/02/14 04:35:13;;;;;;;11.93;4.80;;;7.00;99.90;;;;;;6038772;23;20140;-75
2022/02/14 04:37:39;;;;;;;14.48;5.32;;;7.00;99.90;;;;;;6038090;23;20011;-75
2022/02/14 04:40:06;;;;;;;11.65;4.40;;;7.00;99.90;;;;;;6097149;23;20005;-76
2022/02/14 04:42:32;;;;;;;8.88;4.57;;;7.00;99.90;;;;;;6154484;23;20428;-76
2022/02/14 04:44:57;;;;;;;10.57;5.13;;;6.90;99.90;;;;;;6155530;23;20010;-75
2022/02/14 04:47:26;;;;;;;9.30;5.18;;;7.00;99.90;;;;;;6156564;23;20006;-75
2022/02/14 04:49:51;;;;;;;6.78;3.90;;;7.00;99.90;;;;;;6156181;23;20013;-76
2022/02/14 04:52:17;;;;;;;10.18;5.32;;;7.00;99.90;;;;;;6157416;23;20059;-76
2022/02/14 04:54:44;;;;;;;18.02;4.43;;;6.90;99.90;;;;;;6157926;23;20019;-76
2022/02/14 04:57:09;;;;;;;12.07;4.28;;;7.00;99.90;;;;;;6155351;23;20085;-75
2022/02/14 04:59:35;;;;;;;6.03;4.38;;;7.00;99.90;;;;;;6154911;23;20001;-77
2022/02/14 05:02:04;;;;;;;7.35;3.85;;;6.90;99.90;;;;;;6152531;23;20084;-77
2022/02/14 05:04:32;;;;;;;9.35;4.25;;;6.90;99.90;;;;;;6153486;23;20337;-77
2022/02/14 05:06:58;;;;;;;10.43;4.90;;;6.90;99.90;;;;;;6154708;23;20076;-78
2022/02/14 05:09:24;;;;;;;7.22;4.20;;;6.90;99.90;;;;;;6154518;23;20029;-76
2022/02/14 05:11:50;;;;;;;11.77;4.40;;;6.80;99.90;;;;;;6154599;23;20018;-75
2022/02/14 05:14:19;;;;;;;11.95;4.78;;;6.80;99.90;;;;;;6155506;23;20056;-76
2022/02/14 05:16:45;;;;;;;11.15;4.88;;;6.90;99.90;;;;;;6155492;23;20004;-76
2022/02/14 05:19:11;;;;;;;9.18;3.97;;;6.90;99.90;;;;;;6154945;23;20096;-75
2022/02/14 05:21:36;;;;;;;10.10;4.75;;;6.90;99.90;;;;;;6154288;23;20444;-75
2022/02/14 05:24:02;;;;;;;10.95;4.45;;;7.00;99.90;;;;;;6154035;23;20009;-75
2022/02/14 05:26:31;;;;;;;6.90;4.30;;;7.00;99.90;;;;;;6154960;23;20010;-76
2022/02/14 05:28:56;;;;;;;14.27;5.07;;;6.90;99.90;;;;;;6155907;23;19998;-77
2022/02/14 05:31:31;;;;;;;9.82;5.30;;;6.90;99.90;;;;;;6157659;23;19997;-77
2022/02/14 05:33:57;;;;;;;11.52;5.00;;;6.90;99.90;;;;;;6154945;23;20051;-75
2022/02/14 05:36:23;;;;;;;12.60;4.82;;;6.90;99.90;;;;;;6155900;23;19997;-75
2022/02/14 05:38:49;;;;;;;8.77;4.22;;;6.90;99.90;;;;;;6154732;23;20002;-78
2022/02/14 05:41:15;;;;;;;7.75;4.60;;;6.90;99.90;;;;;;6155519;23;20048;-76
2022/02/14 05:43:41;;;;;;;9.98;4.20;;;6.90;99.90;;;;;;6154995;23;20009;-77
2022/02/14 05:46:13;;;;;;;10.82;4.45;;;6.90;99.90;;;;;;6153189;23;20052;-76
2022/02/14 05:48:43;;;;;;;8.95;5.07;;;6.90;99.90;;;;;;6154276;23;20085;-76
2022/02/14 05:51:13;;;;;;;12.93;4.97;;;6.90;99.90;;;;;;6155360;23;20005;-78
2022/02/14 05:53:39;;;;;;;9.75;4.95;;;6.80;99.90;;;;;;6157185;23;19997;-77
2022/02/14 05:56:07;;;;;;;8.80;4.22;;;6.80;99.90;;;;;;6158026;23;20001;-77
2022/02/14 05:58:33;;;;;;;13.50;4.53;;;6.80;99.90;;;;;;6159118;23;20033;-77
2022/02/14 06:01:00;;;;;;;10.48;4.68;;;6.80;99.90;;;;;;6156604;23;20045;-76
2022/02/14 06:03:28;;;;;;;7.07;3.83;;;6.80;99.90;;;;;;6156281;23;20036;-75
2022/02/14 06:05:54;;;;;;;6.85;4.53;;;6.80;99.90;;;;;;6153744;23;20032;-75
2022/02/14 06:08:19;;;;;;;11.80;4.50;;;6.90;99.90;;;;;;6153827;23;20470;-74
2022/02/14 06:10:45;;;;;;;12.13;4.45;;;6.90;99.90;;;;;;6154597;23;20001;-74
2022/02/14 06:13:11;;;;;;;9.63;4.82;;;6.80;99.90;;;;;;6154535;23;20009;-75
2022/02/14 06:15:37;;;;;;;6.40;4.00;;;6.80;99.90;;;;;;6153657;23;20079;-75
2022/02/14 06:18:02;;;;;;;9.63;4.30;;;6.80;99.90;;;;;;6152010;23;20002;-75
2022/02/14 06:20:28;;;;;;;7.15;4.28;;;6.90;99.90;;;;;;6153191;23;20001;-75
2022/02/14 06:22:54;;;;;;;10.35;4.75;;;6.80;99.90;;;;;;6155096;23;20406;-74
2022/02/14 06:25:26;;;;;;;6.70;4.10;;;6.80;99.90;;;;;;6153511;23;20001;-75
2022/02/14 06:27:52;;;;;;;15.48;4.50;;;6.80;99.90;;;;;;6153417;23;20020;-76
2022/02/14 06:30:22;;;;;;;15.32;4.65;;;6.70;99.90;;;;;;6154837;23;20022;-75
2022/02/14 06:32:48;;;;;;;9.70;3.90;;;6.70;99.90;;;;;;6154754;23;20033;-75
2022/02/14 06:35:15;;;;;;;9.43;4.85;;;6.70;99.90;;;;;;6149522;23;20413;-75
2022/02/14 06:37:43;;;;;;;9.23;4.32;;;6.80;99.90;;;;;;6150355;23;20006;-75
2022/02/14 06:40:15;;;;;;;9.13;3.90;;;6.80;99.90;;;;;;6153718;23;20417;-75
2022/02/14 06:42:49;;;;;;;8.55;4.72;;;6.80;99.90;;;;;;6155569;23;20053;-75
2022/02/14 06:45:22;;;;;;;8.70;4.35;;;6.90;99.90;;;;;;6153741;23;20009;-75
2022/02/14 06:47:50;;;;;;;9.48;3.95;;;6.90;99.90;;;;;;6152925;23;20009;-75
2022/02/14 06:50:17;;;;;;;8.77;3.90;;;6.90;99.90;;;;;;6154848;23;20054;-75
2022/02/14 06:52:48;;;;;;;8.52;4.15;;;7.00;99.90;;;;;;6152554;23;20002;-75
2022/02/14 06:55:16;;;;;;;6.63;3.78;;;7.00;99.90;;;;;;6154130;23;20010;-74
2022/02/14 06:57:43;;;;;;;9.90;4.38;;;7.00;99.90;;;;;;6154319;23;20032;-75
2022/02/14 07:00:12;;;;;;;8.52;4.43;;;6.90;99.90;;;;;;6154898;23;20020;-75
2022/02/14 07:02:38;;;;;;;9.07;3.80;;;7.00;99.90;;;;;;6151947;23;20013;-75
2022/02/14 07:05:04;;;;;;;9.00;4.40;;;7.00;99.90;;;;;;6154879;23;20237;-75
2022/02/14 07:07:35;;;;;;;8.60;4.32;;;7.00;99.90;;;;;;6153654;23;20568;-75
2022/02/14 07:10:02;;;;;;;8.52;5.13;;;7.10;99.90;;;;;;6152779;23;20417;-75
2022/02/14 07:12:28;;;;;;;9.70;4.05;;;7.10;99.90;;;;;;6153167;23;20014;-75
2022/02/14 07:14:54;;;;;;;7.75;3.88;;;7.20;99.90;;;;;;6154388;23;20521;-76
2022/02/14 07:17:19;;;;;;;5.85;3.60;;;7.20;99.90;;;;;;6151427;23;20076;-74
2022/02/14 07:19:45;;;;;;;6.63;3.55;;;7.30;99.90;;;;;;6152071;23;20063;-75
2022/02/14 07:22:15;;;;;;;5.50;3.53;;;7.20;99.90;;;;;;6150879;23;20010;-75
2022/02/14 07:24:41;;;;;;;6.45;3.58;;;7.30;99.90;;;;;;6155760;23;20009;-75
2022/02/14 07:27:07;;;;;;;10.15;3.40;;;7.30;99.90;;;;;;6154053;23;20009;-75
2022/02/14 07:29:33;;;;;;;12.25;4.18;;;7.30;99.90;;;;;;6155744;23;20007;-75
2022/02/14 07:32:00;;;;;;;5.82;3.60;;;7.40;99.90;;;;;;6157566;23;20025;-75
2022/02/14 07:34:28;;;;;;;11.20;4.10;;;7.50;99.90;;;;;;6156330;23;19997;-75
2022/02/14 07:37:02;;;;;;;7.38;3.15;;;7.60;99.90;;;;;;6154901;23;19997;-75
2022/02/14 07:39:33;;;;;;;10.57;3.72;;;7.60;99.90;;;;;;6154335;23;20073;-75
2022/02/14 07:42:01;;;;;;;9.52;3.60;;;7.70;99.90;;;;;;6154426;23;20005;-76
2022/02/14 07:44:32;;;;;;;5.88;3.72;;;7.60;99.90;;;;;;6153561;23;20012;-76
2022/02/14 07:47:01;;;;;;;11.10;4.07;;;7.60;99.90;;;;;;6151760;23;20084;-75
2022/02/14 07:49:29;;;;;;;6.90;3.42;;;7.60;99.90;;;;;;6153549;23;20009;-77
2022/02/14 07:51:57;;;;;;;7.60;3.75;;;7.60;99.90;;;;;;6155973;23;19998;-75
2022/02/14 07:54:25;;;;;;;9.65;3.80;;;7.60;99.90;;;;;;6156007;23;20004;-79
2022/02/14 07:56:53;;;;;;;9.15;3.03;;;7.70;99.90;;;;;;6150236;23;20006;-80
2022/02/14 07:59:19;;;;;;;8.38;3.95;;;7.70;99.90;;;;;;6149962;23;20088;-80
2022/02/14 08:01:48;;;;;;;6.45;3.60;;;7.80;99.90;;;;;;6152166;23;20033;-79
2022/02/14 08:04:13;;;;;;;7.47;3.08;;;7.80;99.90;;;;;;6150729;23;20021;-80
2022/02/14 08:06:42;;;;;;;7.00;3.88;;;7.90;99.90;;;;;;6151999;23;20017;-80
2022/02/14 08:09:12;;;;;;;4.43;3.10;;;7.90;99.90;;;;;;6151333;23;20021;-80
2022/02/14 08:11:41;;;;;;;10.45;3.15;;;8.00;99.90;;;;;;6151649;23;20333;-80
2022/02/14 08:14:07;;;;;;;4.82;2.92;;;8.10;99.90;;;;;;6153666;23;20060;-80
2022/02/14 08:16:33;;;;;;;5.93;3.58;;;8.20;99.90;;;;;;6151017;23;20341;-78
2022/02/14 08:19:05;;;;;;;10.35;3.50;;;8.30;99.90;;;;;;6150358;23;20013;-80
2022/02/14 08:21:35;;;;;;;10.07;3.15;;;8.40;99.90;;;;;;6153087;23;20401;-80
2022/02/14 08:24:02;;;;;;;8.77;2.95;;;8.50;99.90;;;;;;6151588;23;20010;-80
2022/02/14 08:26:30;;;;;;;6.72;2.80;;;8.60;99.90;;;;;;6151079;23;20005;-80
2022/02/14 08:29:00;;;;;;;4.50;2.92;;;8.70;99.90;;;;;;6153431;23;20090;-80
2022/02/14 08:31:25;;;;;;;7.63;3.35;;;8.80;99.90;;;;;;6152949;23;20025;-80
2022/02/14 08:33:51;;;;;;;4.85;3.05;;;8.90;99.90;;;;;;6153938;23;20619;-80
2022/02/14 08:36:20;;;;;;;5.05;3.28;;;8.90;99.90;;;;;;6153352;23;20314;-80
2022/02/14 08:38:49;;;;;;;6.43;2.88;;;9.00;99.90;;;;;;6153281;23;20010;-74
2022/02/14 08:41:15;;;;;;;5.70;2.60;;;9.00;99.90;;;;;;6154992;23;20444;-74
2022/02/14 08:43:48;;;;;;;7.82;3.00;;;9.00;99.90;;;;;;6153623;23;20009;-74
2022/02/14 08:46:15;;;;;;;8.23;3.25;;;9.10;99.90;;;;;;6154766;23;20077;-74
2022/02/14 08:48:41;;;;;;;7.95;2.70;;;9.20;99.90;;;;;;6150390;23;20014;-74
2022/02/14 08:51:10;;;;;;;8.48;3.75;;;9.20;99.90;;;;;;6152213;23;20021;-74
2022/02/14 08:53:38;;;;;;;9.38;3.50;;;9.20;99.90;;;;;;6152123;23;20383;-74
2022/02/14 08:56:06;;;;;;;6.65;3.22;;;9.30;99.90;;;;;;6149405;23;20465;-74
2022/02/14 08:58:36;;;;;;;4.47;2.95;;;9.30;99.90;;;;;;6149239;23;20440;-74
2022/02/14 09:01:03;;;;;;;5.38;3.30;;;9.40;99.90;;;;;;6149838;23;20009;-74
2022/02/14 09:03:31;;;;;;;5.35;3.28;;;9.40;99.90;;;;;;6151310;23;20170;-74
2022/02/14 09:05:57;;;;;;;7.35;3.10;;;9.40;99.90;;;;;;6149789;23;20524;-74
2022/02/14 09:08:25;;;;;;;7.47;2.95;;;9.60;99.90;;;;;;6149997;23;20072;-74
2022/02/14 09:10:51;;;;;;;6.05;3.03;;;9.60;99.90;;;;;;6149769;23;20012;-75
2022/02/14 09:13:17;;;;;;;6.28;3.08;;;9.70;99.90;;;;;;6149685;23;20010;-74
2022/02/14 09:15:43;;;;;;;7.28;2.80;;;9.90;99.90;;;;;;6150472;23;20344;-74
2022/02/14 09:18:09;;;;;;;4.97;2.55;;;10.00;99.90;;;;;;6149524;23;20010;-74
2022/02/14 09:20:36;;;;;;;7.63;2.70;;;10.20;99.90;;;;;;6149669;23;20433;-74
2022/02/14 09:23:03;;;;;;;8.15;3.13;;;10.40;99.90;;;;;;6152237;23;20008;-74
2022/02/14 09:25:31;;;;;;;7.85;3.17;;;10.60;99.90;;;;;;6149885;23;20096;-74
2022/02/14 09:27:57;;;;;;;8.25;3.95;;;10.90;99.70;;;;;;6149558;23;20068;-74
2022/02/14 09:30:23;;;;;;;7.95;3.50;;;11.10;99.30;;;;;;6150777;23;20089;-74
2022/02/14 09:32:49;;;;;;;7.28;2.42;;;11.40;98.60;;;;;;6150413;23;20389;-74
2022/02/14 09:35:26;;;;;;;6.30;2.45;;;11.70;98.20;;;;;;6151378;23;20020;-74
2022/02/14 09:37:53;;;;;;;6.30;2.90;;;11.90;97.80;;;;;;6151201;23;20005;-74
2022/02/14 09:40:21;;;;;;;9.13;2.80;;;12.10;97.00;;;;;;6149926;23;20113;-74
2022/02/14 09:42:47;;;;;;;8.02;3.67;;;12.30;96.30;;;;;;6149668;23;20009;-74
2022/02/14 09:45:12;;;;;;;6.82;2.38;;;12.40;96.30;;;;;;6149340;23;20068;-75
2022/02/14 09:47:40;;;;;;;6.82;2.97;;;12.60;95.60;;;;;;6150695;23;20028;-75
2022/02/14 09:50:09;;;;;;;5.28;2.40;;;12.90;94.90;;;;;;6149963;23;20005;-74
2022/02/14 09:52:35;;;;;;;4.93;2.25;;;13.80;93.70;;;;;;6149627;23;20028;-75
2022/02/14 09:55:00;;;;;;;4.43;2.20;;;14.70;91.40;;;;;;6149539;23;20444;-75
2022/02/14 09:57:26;;;;;;;8.43;2.13;;;15.80;87.00;;;;;;6148665;23;20021;-75
2022/02/14 09:59:52;;;;;;;6.40;2.40;;;16.40;80.20;;;;;;6149301;23;20072;-75
2022/02/14 10:02:26;;;;;;;4.80;2.35;;;16.60;78.70;;;;;;6151424;23;20376;-76
2022/02/14 10:05:05;;;;;;;8.32;2.40;;;17.10;75.30;;;;;;6149166;23;20314;-76
2022/02/14 10:07:41;;;;;;;4.82;2.83;;;16.30;75.00;;;;;;6150092;23;20009;-75
2022/02/14 10:10:09;;;;;;;7.03;2.65;;;16.00;76.60;;;;;;6148724;23;20029;-76
2022/02/14 10:12:43;;;;;;;8.48;2.60;;;16.00;77.00;;;;;;6149940;23;20076;-76
2022/02/14 10:15:09;;;;;;;4.70;2.20;;;16.20;75.70;;;;;;6149090;23;20012;-76
2022/02/14 10:17:43;;;;;;;4.38;2.53;;;16.00;76.30;;;;;;6150835;23;19998;-76
2022/02/14 10:20:09;;;;;;;5.10;2.30;;;15.90;76.80;;;;;;6153525;23;20064;-77
2022/02/14 10:23:04;;;;;;;6.85;2.65;;;15.60;76.90;;;;;;6153871;23;20359;-79
2022/02/14 10:25:40;;;;;;;3.63;2.65;;;15.90;77.10;;;;;;6150505;23;20009;-79
2022/02/14 10:28:33;;;;;;;6.10;2.00;;;16.30;75.80;;;;;;6151818;23;20012;-80
2022/02/14 10:31:02;;;;;;;8.82;2.75;;;16.00;75.60;;;;;;6151276;23;20008;-79
2022/02/14 10:33:51;;;;;;;4.65;2.60;;;16.00;76.30;;;;;;6151065;23;20005;-79
2022/02/14 10:36:34;;;;;;;5.25;2.05;;;15.80;76.00;;;;;;6154963;23;20005;-79
2022/02/14 10:39:34;;;;;;;6.40;2.40;;;15.00;80.00;;;;;;6161966;23;20006;-78
2022/02/14 10:42:08;;;;;;;4.07;2.08;;;14.40;81.10;;;;;;6160332;23;20013;-79
2022/02/14 10:45:08;;;;;;;4.78;2.70;;;15.70;80.90;;;;;;6156004;23;20010;-80
2022/02/14 10:47:50;;;;;;;7.05;2.85;;;17.40;74.30;;;;;;6167647;23;20327;-80
2022/02/14 10:50:32;;;;;;;6.13;2.45;;;19.20;69.00;;;;;;6155390;23;20429;-80
2022/02/14 10:53:01;;;;;;;6.75;2.22;;;20.60;63.00;;;;;;6153293;23;20266;-81
2022/02/14 10:55:37;;;;;;;6.40;2.10;;;21.70;59.40;;;;;;6152615;23;20083;-81
2022/02/14 10:58:32;;;;;;;3.67;2.03;;;22.70;55.50;;;;;;6150603;23;20311;-81
2022/02/14 11:01:00;;;;;;;4.55;2.25;;;22.90;54.40;;;;;;6153361;23;20012;-77
2022/02/14 11:03:29;;;;;;;3.80;2.05;;;24.70;51.40;;;;;;6150884;23;20004;-77
2022/02/14 11:05:58;;;;;;;6.57;2.47;;;25.20;48.60;;;;;;6153125;23;20029;-76
2022/02/14 11:08:25;;;;;;;3.78;2.13;;;26.50;46.10;;;;;;6152684;23;20083;-76
2022/02/14 11:10:55;;;;;;;8.07;2.08;;;26.00;45.10;;;;;;6150748;23;20009;-76
2022/02/14 11:13:38;;;;;;;4.45;2.20;;;22.90;49.30;;;;;;6153476;23;20437;-76
2022/02/14 11:16:05;;;;;;;4.00;2.10;;;22.70;49.10;;;;;;6153011;23;20001;-76
2022/02/14 11:18:33;;;;;;;7.30;2.22;;;22.90;49.90;;;;;;6152016;23;20508;-76
2022/02/14 11:21:00;;;;;;;4.57;2.22;;;22.40;50.70;;;;;;6152656;23;20427;-76
2022/02/14 11:23:40;;;;;;;2.28;1.80;;;22.10;51.80;;;;;;6151520;23;20447;-76
2022/02/14 11:26:36;;;;;;;6.75;2.03;;;22.60;50.80;;;;;;6152562;23;20006;-77
2022/02/14 11:29:49;;;;;;;8.77;2.50;;;22.80;50.40;;;;;;6151865;23;20005;-77
2022/02/14 11:32:23;;;;;;;6.25;2.42;;;23.80;47.90;;;;;;6152899;23;20311;-76
2022/02/14 11:35:22;;;;;;;7.28;2.70;;;23.40;50.10;;;;;;6149265;23;20005;-77
2022/02/14 11:37:58;;;;;;;7.90;2.20;;;22.60;49.10;;;;;;6145145;23;20014;-77
2022/02/14 11:40:42;;;;;;;4.18;2.40;;;23.00;50.10;;;;;;6152311;23;20125;-77
2022/02/14 11:43:19;;;;;;;4.18;2.13;;;22.80;50.10;;;;;;6150020;23;20149;-77
2022/02/14 11:46:13;;;;;;;8.48;2.10;;;23.60;49.20;;;;;;6149761;23;20561;-77
2022/02/14 11:48:39;;;;;;;8.18;2.40;;;23.00;49.10;;;;;;6148879;23;20108;-76
2022/02/14 11:51:09;;;;;;;8.05;2.58;;;22.40;49.80;;;;;;6149910;23;20096;-77
2022/02/14 11:53:47;;;;;;;4.32;2.03;;;22.30;50.30;;;;;;6149009;23;20008;-77
2022/02/14 11:56:23;;;;;;;6.35;2.38;;;23.20;48.90;;;;;;6148625;23;20002;-76
2022/02/14 11:59:12;;;;;;;8.15;2.75;;;23.10;48.20;;;;;;6149713;23;20009;-76
2022/02/14 12:01:50;;;;;;;4.63;2.37;;;23.20;49.10;;;;;;6150609;23;20005;-77
2022/02/14 12:04:52;;;;;;;4.22;2.10;;;23.20;48.00;;;;;;6150588;23;20322;-76
2022/02/14 12:07:35;;;;;;;4.20;2.17;;;23.20;48.40;;;;;;6150693;23;20085;-77
2022/02/14 12:10:17;;;;;;;7.60;2.67;;;22.50;50.80;;;;;;6152063;23;20025;-77
2022/02/14 12:12:46;;;;;;;6.40;1.80;;;22.10;49.10;;;;;;6149480;23;20070;-77
2022/02/14 12:20:34;;;;;;;4.80;2.50;;;22.40;49.20;;;;;;6152218;23;20068;-77
2022/02/14 12:21:31;;;;;;;6.38;2.80;;;22.30;50.40;;;;;;6151919;23;20150;-77
2022/02/14 12:24:10;;;;;;;3.28;1.95;;;22.50;49.70;;;;;;6150527;23;20437;-78
2022/02/14 12:26:35;;;;;;;7.32;2.20;;;22.40;49.30;;;;;;6149680;23;20080;-77
2022/02/14 12:31:55;;;;;;;5.43;1.90;;;20.50;53.10;;;;;;6151696;23;20168;-78
2022/02/14 12:34:29;;;;;;;3.95;2.30;;;21.20;53.50;;;;;;6150077;23;20009;-78
2022/02/14 12:36:56;;;;;;;4.90;2.08;;;21.60;50.80;;;;;;6149943;23;20389;-76
2022/02/14 12:39:36;;;;;;;3.40;2.20;;;22.20;52.20;;;;;;6149075;23;20105;-78
2022/02/14 12:42:10;;;;;;;9.05;2.72;;;22.00;50.20;;;;;;6149944;23;20052;-77
2022/02/14 12:44:40;;;;;;;7.32;2.40;;;22.00;51.30;;;;;;6149771;23;20010;-78
2022/02/14 12:47:06;;;;;;;6.00;2.47;;;22.30;50.20;;;;;;6151921;23;20040;-77
2022/02/14 12:49:31;;;;;;;11.20;2.50;;;21.30;51.90;;;;;;6149530;23;20009;-78
2022/02/14 12:52:12;;;;;;;5.15;2.65;;;21.30;53.20;;;;;;6152802;23;20235;-76
2022/02/14 12:54:38;;;;;;;5.50;1.83;;;20.90;53.50;;;;;;6150443;23;20013;-76
2022/02/14 12:57:03;;;;;;;3.40;2.15;;;20.80;54.40;;;;;;6149828;23;20005;-76
2022/02/14 12:59:34;;;;;;;3.10;2.00;;;20.70;54.70;;;;;;6149729;23;20063;-76
2022/02/14 13:02:02;;;;;;;4.85;2.22;;;20.70;54.40;;;;;;6151587;23;20080;-76
2022/02/14 13:04:29;;;;;;;6.97;2.28;;;20.80;54.60;;;;;;6150117;23;20110;-76
2022/02/14 13:06:58;;;;;;;4.28;1.98;;;20.70;54.60;;;;;;6151676;23;20091;-76